Sumpter Township, Michigan
Current Conditions -  °F | °C
As of 8:53 PM on Monday 20 Oct 2014 (Local Time) from KYIP Reporting Station
Overcast Overcast  
Wind Chill: 55°   Ceiling: 4400
Heat Index: 55°   Visibility: 7mi
Dew Point: 49°   Wind: 7mph
Humidity: 80%   Direction: 260°W
Pressure: 29.85"   Gusts: NA
Location:  42.1781°N, 83.4854°W
Report Text: KYIP 210053Z AUTO 26006KT 7SM BKN044 OVC060 13/09 A2985 RMK AO2 RAB20E53 SLP106 P0001 T01280094 TSNO
Loading
Personal Weather Stations






























Interactive Weather Map
Tropical Storm Tracking
New forecast layout! Learn more

10-Day Weather Forecast

Advertisements
Track Severe Weather on mobile